Stockbridge Indian Reservati, Wisconsin
Current Conditions -  °F | °C
As of 6:53 AM on Sunday 21 Dec 2014 (Local Time) from KASX Reporting Station
Overcast Overcast  
Wind Chill: 25°   Ceiling: 1500
Heat Index: 31°   Visibility: 8mi
Dew Point: 26°   Wind: 6mph
Humidity: 82%   Direction: 160°SSE
Pressure: 29.99"   Gusts: NA
Location:  46.543°N, 90.8706°W
Report Text: KASX 211253Z AUTO 16005KT 8SM OVC015 M01/M03 A2999 RMK AO2 SLP167 T10061033
Loading
Personal Weather Stations






























Interactive Weather Map New forecast layout! Learn more

10-Day Weather Forecast

Advertisements
Track Severe Weather on mobile